createdAt,value
2022-07-25T00:00:37.011Z,5.07
2022-07-25T00:03:39.502Z,5.38
2022-07-25T00:06:42.972Z,5.00
2022-07-25T00:09:44.846Z,4.57
2022-07-25T00:12:48.035Z,4.95
2022-07-25T00:15:49.850Z,4.82
2022-07-25T00:18:51.678Z,4.30
2022-07-25T00:21:53.550Z,4.75
2022-07-25T00:24:55.540Z,4.80
2022-07-25T00:27:58.483Z,4.20
2022-07-25T00:31:00.527Z,4.60
2022-07-25T00:34:03.481Z,4.55
2022-07-25T00:37:05.601Z,4.90
2022-07-25T00:40:08.160Z,4.88
2022-07-25T00:43:10.023Z,5.20
2022-07-25T00:46:18.811Z,4.45
2022-07-25T00:49:21.346Z,4.65
2022-07-25T00:52:24.599Z,4.20
2022-07-25T00:55:27.331Z,3.90
2022-07-25T00:58:29.642Z,4.10
2022-07-25T01:01:31.529Z,4.22
2022-07-25T01:04:33.951Z,4.60
2022-07-25T01:07:37.057Z,4.80
2022-07-25T01:10:39.291Z,4.63
2022-07-25T01:13:41.507Z,4.30
2022-07-25T01:16:43.367Z,4.22
2022-07-25T01:19:46.365Z,5.13
2022-07-25T01:22:48.536Z,4.50
2022-07-25T01:25:50.526Z,4.35
2022-07-25T01:28:52.706Z,4.88
2022-07-25T01:31:54.581Z,4.28
2022-07-25T01:34:56.429Z,3.90
2022-07-25T01:37:58.322Z,4.80
2022-07-25T01:41:00.101Z,4.32
2022-07-25T01:44:01.972Z,3.92
2022-07-25T01:47:04.172Z,4.95
2022-07-25T01:50:07.065Z,4.85
2022-07-25T01:53:09.054Z,4.22
2022-07-25T01:56:11.025Z,4.63
2022-07-25T01:59:14.822Z,4.45
2022-07-25T02:02:16.609Z,4.38
2022-07-25T02:05:18.390Z,4.32
2022-07-25T02:08:20.263Z,4.72
2022-07-25T02:11:22.111Z,4.85
2022-07-25T02:14:23.911Z,4.32
2022-07-25T02:17:26.791Z,4.00
2022-07-25T02:20:28.678Z,4.13
2022-07-25T02:23:30.438Z,4.25
2022-07-25T02:26:32.231Z,4.60
2022-07-25T02:29:34.243Z,4.88
2022-07-25T02:32:36.011Z,4.22
2022-07-25T02:35:37.808Z,4.40
2022-07-25T02:38:39.695Z,4.50
2022-07-25T02:41:42.251Z,4.72
2022-07-25T02:44:44.039Z,4.55
2022-07-25T02:47:45.862Z,4.78
2022-07-25T02:50:47.727Z,4.38
2022-07-25T02:53:58.430Z,4.80
2022-07-25T02:57:00.741Z,4.13
2022-07-25T03:00:03.706Z,4.22
2022-07-25T03:03:05.462Z,4.53
2022-07-25T03:06:07.751Z,4.65
2022-07-25T03:09:09.524Z,4.05
2022-07-25T03:12:11.334Z,4.85
2022-07-25T03:15:13.979Z,4.72
2022-07-25T03:18:15.753Z,4.80
2022-07-25T03:21:17.547Z,4.88
2022-07-25T03:24:19.354Z,4.55
2022-07-25T03:27:21.180Z,4.47
2022-07-25T03:30:23.016Z,4.55
2022-07-25T03:33:24.778Z,5.00
2022-07-25T03:36:26.628Z,4.78
2022-07-25T03:39:29.235Z,4.50
2022-07-25T03:42:35.414Z,4.80
2022-07-25T03:45:37.739Z,4.53
2022-07-25T03:48:39.685Z,4.55
2022-07-25T03:51:42.389Z,4.40
2022-07-25T03:54:44.165Z,4.80
2022-07-25T03:57:45.987Z,4.50
2022-07-25T04:00:48.809Z,4.90
2022-07-25T04:03:50.647Z,5.18
2022-07-25T04:06:52.446Z,4.75
2022-07-25T04:09:54.313Z,4.03
2022-07-25T04:12:56.118Z,4.93
2022-07-25T04:15:57.963Z,4.50
2022-07-25T04:19:01.058Z,5.13
2022-07-25T04:22:03.775Z,5.20
2022-07-25T04:25:06.434Z,4.97
2022-07-25T04:28:08.441Z,5.13
2022-07-25T04:31:10.367Z,5.65
2022-07-25T04:34:12.191Z,5.22
2022-07-25T04:37:13.977Z,4.63
2022-07-25T04:40:15.855Z,4.70
2022-07-25T04:43:17.650Z,4.53
2022-07-25T04:46:20.755Z,4.78
2022-07-25T04:49:22.640Z,4.88
2022-07-25T04:52:24.418Z,4.50
2022-07-25T04:55:26.188Z,5.32
2022-07-25T04:58:28.078Z,5.30
2022-07-25T05:01:29.872Z,5.45
2022-07-25T05:04:31.670Z,5.10
2022-07-25T05:07:33.439Z,4.88
2022-07-25T05:10:35.204Z,5.30
2022-07-25T05:13:36.965Z,5.07
2022-07-25T05:16:39.073Z,5.05
2022-07-25T05:19:41.255Z,5.18
2022-07-25T05:22:43.203Z,5.22
2022-07-25T05:25:45.082Z,5.10
2022-07-25T05:28:46.908Z,5.13
2022-07-25T05:31:48.789Z,6.45
2022-07-25T05:34:50.715Z,6.18
2022-07-25T05:37:52.460Z,6.47
2022-07-25T05:40:54.550Z,6.47
2022-07-25T05:43:56.332Z,5.65
2022-07-25T05:46:58.210Z,5.55
2022-07-25T05:49:59.984Z,5.70
2022-07-25T05:53:01.896Z,5.22
2022-07-25T05:56:04.065Z,5.47
2022-07-25T05:59:05.921Z,5.60
2022-07-25T06:02:08.008Z,4.75
2022-07-25T06:05:10.208Z,5.30
2022-07-25T06:08:12.604Z,5.72
2022-07-25T06:11:14.406Z,5.63
2022-07-25T06:14:16.672Z,5.65
2022-07-25T06:17:19.517Z,5.22
2022-07-25T06:20:21.537Z,5.40
2022-07-25T06:23:23.455Z,5.20
2022-07-25T06:26:29.416Z,5.47
2022-07-25T06:29:31.222Z,5.63
2022-07-25T06:32:33.010Z,5.43
2022-07-25T06:35:34.973Z,5.63
2022-07-25T06:38:36.823Z,5.20
2022-07-25T06:41:38.648Z,5.25
2022-07-25T06:44:40.484Z,5.10
2022-07-25T06:47:43.196Z,5.05
2022-07-25T06:50:45.467Z,4.80
2022-07-25T06:53:47.298Z,5.10
2022-07-25T06:56:49.199Z,5.05
2022-07-25T06:59:51.244Z,4.45
2022-07-25T07:03:03.350Z,4.97
2022-07-25T07:06:06.664Z,4.80
2022-07-25T07:09:08.444Z,5.07
2022-07-25T07:12:10.863Z,5.00
2022-07-25T07:15:13.454Z,5.20
2022-07-25T07:18:15.374Z,5.78
2022-07-25T07:21:21.386Z,6.00
2022-07-25T07:24:24.673Z,6.03
2022-07-25T07:27:26.673Z,6.10
2022-07-25T07:30:44.386Z,6.38
2022-07-25T07:33:50.238Z,6.35
2022-07-25T07:36:52.489Z,6.72
2022-07-25T07:39:54.272Z,6.20
2022-07-25T07:42:57.158Z,6.07
2022-07-25T07:46:01.152Z,6.45
2022-07-25T07:49:03.995Z,6.57
2022-07-25T07:52:06.306Z,6.60
2022-07-25T07:55:27.490Z,6.50
2022-07-25T07:58:29.776Z,6.20
2022-07-25T08:01:31.791Z,7.28
2022-07-25T08:04:33.687Z,6.18
2022-07-25T08:07:35.591Z,6.30
2022-07-25T08:10:39.835Z,6.97
2022-07-25T08:13:41.772Z,6.60
2022-07-25T08:16:43.582Z,6.28
2022-07-25T08:19:45.360Z,6.82
2022-07-25T08:22:50.842Z,6.40
2022-07-25T08:25:55.004Z,6.57
2022-07-25T08:29:17.661Z,6.30
2022-07-25T08:32:19.147Z,6.10
2022-07-25T08:35:22.381Z,6.80
2022-07-25T08:38:26.405Z,5.90
2022-07-25T08:41:29.066Z,5.72
2022-07-25T08:44:36.939Z,6.30
2022-07-25T08:47:40.607Z,5.85
2022-07-25T08:50:43.230Z,6.53
2022-07-25T08:53:48.614Z,6.30
2022-07-25T08:56:51.484Z,6.18
2022-07-25T08:59:53.669Z,5.22
2022-07-25T09:02:58.660Z,6.45
2022-07-25T09:06:13.354Z,6.47
2022-07-25T09:09:15.282Z,6.22
2022-07-25T09:12:17.056Z,6.15
2022-07-25T09:15:40.235Z,6.05
2022-07-25T09:18:45.393Z,6.30
2022-07-25T09:22:00.244Z,5.88
2022-07-25T09:25:02.064Z,5.97
2022-07-25T09:28:17.487Z,5.57
2022-07-25T09:31:19.509Z,6.45
2022-07-25T09:34:34.497Z,5.65
2022-07-25T09:37:36.274Z,6.10
2022-07-25T09:40:38.569Z,5.55
2022-07-25T09:43:44.339Z,5.78
2022-07-25T09:46:46.324Z,5.40
2022-07-25T09:49:48.262Z,6.32
2022-07-25T09:52:52.239Z,5.53
2022-07-25T09:55:55.116Z,6.10
2022-07-25T09:58:58.346Z,5.75
2022-07-25T10:02:09.182Z,5.80
2022-07-25T10:05:50.387Z,5.72
2022-07-25T10:08:54.343Z,5.28
2022-07-25T10:12:05.944Z,5.78
2022-07-25T10:15:14.344Z,5.30
2022-07-25T10:18:19.918Z,5.65
2022-07-25T10:21:27.039Z,5.57
2022-07-25T10:24:38.900Z,6.40
2022-07-25T10:27:50.794Z,5.53
2022-07-25T10:30:58.627Z,5.30
2022-07-25T10:34:06.777Z,5.47
2022-07-25T10:37:13.954Z,5.53
2022-07-25T10:40:44.416Z,5.82
2022-07-25T10:43:48.793Z,5.10
2022-07-25T10:46:50.742Z,5.43
2022-07-25T10:53:35.523Z,5.13
2022-07-25T10:56:37.287Z,4.95
2022-07-25T10:59:40.921Z,5.60
2022-07-25T11:02:43.051Z,5.15
2022-07-25T11:05:48.767Z,6.68
2022-07-25T11:08:50.695Z,4.88
2022-07-25T11:11:54.849Z,5.35
2022-07-25T11:15:07.299Z,5.28
2022-07-25T11:18:09.132Z,5.50
2022-07-25T11:21:10.957Z,5.00
2022-07-25T11:24:12.902Z,5.25
2022-07-25T11:27:40.697Z,5.05
2022-07-25T11:30:42.463Z,5.72
2022-07-25T11:33:47.342Z,5.47
2022-07-25T11:36:49.855Z,5.45
2022-07-25T11:39:53.011Z,6.03
2022-07-25T11:42:57.541Z,5.55
2022-07-25T11:46:07.426Z,5.10
2022-07-25T11:49:09.778Z,6.40
2022-07-25T11:52:38.381Z,5.95
2022-07-25T11:55:42.239Z,5.38
2022-07-25T11:58:49.511Z,5.50
2022-07-25T12:01:51.640Z,5.47
2022-07-25T12:05:03.300Z,5.93
2022-07-25T12:08:36.949Z,6.65
2022-07-25T12:11:38.947Z,6.70
2022-07-25T12:14:44.055Z,5.93
2022-07-25T12:17:46.417Z,7.15
2022-07-25T12:20:48.192Z,7.93
2022-07-25T12:23:49.966Z,7.78
2022-07-25T12:26:52.245Z,6.75
2022-07-25T12:29:54.016Z,8.45
2022-07-25T12:32:57.040Z,7.10
2022-07-25T12:36:02.063Z,8.10
2022-07-25T12:39:07.465Z,8.02
2022-07-25T12:42:09.405Z,7.32
2022-07-25T12:45:12.777Z,7.43
2022-07-25T12:48:15.400Z,7.60
2022-07-25T12:51:17.236Z,6.85
2022-07-25T12:54:22.377Z,7.38
2022-07-25T12:57:24.670Z,8.30
2022-07-25T13:00:27.327Z,7.55
2022-07-25T13:03:29.172Z,7.80
2022-07-25T13:06:33.424Z,7.70
2022-07-25T13:09:38.671Z,6.80
2022-07-25T13:12:40.684Z,6.95
2022-07-25T13:15:42.544Z,7.13
2022-07-25T13:18:44.424Z,7.07
2022-07-25T13:21:46.223Z,7.35
2022-07-25T13:24:48.013Z,7.45
2022-07-25T13:27:49.906Z,7.07
2022-07-25T13:30:51.868Z,7.18
2022-07-25T13:33:53.638Z,7.50
2022-07-25T13:36:55.467Z,7.13
2022-07-25T13:39:57.346Z,6.38
2022-07-25T13:42:59.204Z,7.38
2022-07-25T13:46:01.882Z,6.90
2022-07-25T13:49:04.123Z,6.57
2022-07-25T13:52:06.499Z,6.63
2022-07-25T13:55:10.296Z,6.93
2022-07-25T13:58:12.116Z,6.55
2022-07-25T14:01:13.936Z,6.40
2022-07-25T14:04:15.895Z,6.78
2022-07-25T14:07:17.740Z,6.47
2022-07-25T14:10:19.602Z,6.95
2022-07-25T14:13:21.438Z,7.03
2022-07-25T14:16:23.251Z,5.95
2022-07-25T14:19:25.101Z,6.43
2022-07-25T14:22:27.169Z,6.40
2022-07-25T14:25:28.950Z,6.43
2022-07-25T14:28:30.725Z,5.88
2022-07-25T14:31:32.941Z,6.15
2022-07-25T14:34:35.569Z,5.93
2022-07-25T14:37:37.888Z,5.72
2022-07-25T14:40:39.654Z,6.07
2022-07-25T14:43:41.944Z,5.85
2022-07-25T14:46:44.242Z,5.80
2022-07-25T14:49:46.100Z,6.00
2022-07-25T14:52:47.927Z,6.30
2022-07-25T14:55:49.769Z,5.50
2022-07-25T14:58:51.579Z,5.63
2022-07-25T15:01:53.367Z,5.93
2022-07-25T15:04:55.453Z,5.78
2022-07-25T15:07:57.258Z,5.38
2022-07-25T15:10:59.042Z,5.95
2022-07-25T15:14:00.849Z,5.90
2022-07-25T15:17:02.765Z,5.60
2022-07-25T15:20:05.031Z,5.65
2022-07-25T15:23:06.896Z,5.90
2022-07-25T15:26:11.866Z,5.82
2022-07-25T15:29:20.263Z,6.00
2022-07-25T15:32:22.107Z,5.75
2022-07-25T15:35:23.927Z,5.93
2022-07-25T15:38:26.460Z,5.75
2022-07-25T15:41:28.371Z,6.50
2022-07-25T15:44:32.565Z,6.00
2022-07-25T15:47:34.428Z,5.93
2022-07-25T15:50:39.052Z,6.28
2022-07-25T15:53:41.082Z,5.60
2022-07-25T15:56:42.965Z,6.10
2022-07-25T15:59:44.829Z,6.22
2022-07-25T16:02:46.970Z,5.53
2022-07-25T16:05:48.769Z,6.13
2022-07-25T16:08:50.605Z,5.38
2022-07-25T16:11:59.226Z,5.35
2022-07-25T16:15:01.161Z,6.05
2022-07-25T16:18:03.369Z,5.57
2022-07-25T16:21:05.704Z,5.15
2022-07-25T16:24:09.353Z,5.35
2022-07-25T16:27:11.311Z,5.57
2022-07-25T16:30:13.717Z,5.90
2022-07-25T16:33:15.749Z,5.40
2022-07-25T16:36:17.713Z,5.65
2022-07-25T16:39:21.676Z,5.05
2022-07-25T16:42:23.460Z,5.38
2022-07-25T16:45:26.071Z,5.47
2022-07-25T16:48:28.058Z,5.43
2022-07-25T16:51:33.064Z,4.95
2022-07-25T16:54:37.110Z,5.55
2022-07-25T16:57:39.019Z,5.88
2022-07-25T17:00:40.911Z,5.40
2022-07-25T17:03:43.025Z,5.07
2022-07-25T17:06:44.925Z,5.47
2022-07-25T17:09:46.744Z,4.72
2022-07-25T17:12:48.615Z,4.55
2022-07-25T17:15:50.513Z,4.85
2022-07-25T17:18:52.401Z,4.93
2022-07-25T17:21:54.223Z,5.43
2022-07-25T17:24:56.176Z,5.22
2022-07-25T17:27:58.214Z,5.03
2022-07-25T17:31:00.096Z,4.78
2022-07-25T17:34:02.164Z,5.65
2022-07-25T17:37:06.340Z,5.07
2022-07-25T17:40:09.320Z,5.07
2022-07-25T17:43:11.162Z,5.10
2022-07-25T17:46:13.905Z,5.18
2022-07-25T17:49:15.830Z,4.88
2022-07-25T17:52:17.929Z,4.88
2022-07-25T17:55:20.139Z,4.55
2022-07-25T17:58:22.042Z,5.22
2022-07-25T18:01:23.875Z,4.63
2022-07-25T18:04:25.741Z,4.95
2022-07-25T18:07:27.513Z,4.32
2022-07-25T18:10:29.444Z,4.78
2022-07-25T18:13:31.293Z,5.05
2022-07-25T18:16:33.235Z,4.75
2022-07-25T18:19:35.150Z,4.82
2022-07-25T18:22:38.241Z,4.65
2022-07-25T18:25:40.107Z,5.10
2022-07-25T18:28:41.988Z,5.00
2022-07-25T18:31:44.818Z,5.13
2022-07-25T18:34:47.021Z,4.60
2022-07-25T18:37:48.934Z,4.68
2022-07-25T18:41:06.475Z,4.47
2022-07-25T18:44:12.556Z,3.65
2022-07-25T18:47:14.778Z,3.40
2022-07-25T18:50:19.752Z,4.00
2022-07-25T18:53:21.542Z,3.70
2022-07-25T18:56:23.416Z,2.70
2022-07-25T18:59:25.788Z,2.80
2022-07-25T19:02:27.684Z,2.63
2022-07-25T19:05:29.573Z,2.05
2022-07-25T19:08:33.463Z,2.10
2022-07-25T19:11:38.979Z,2.17
2022-07-25T19:14:44.257Z,2.10
2022-07-25T19:17:46.283Z,1.65
2022-07-25T19:20:48.148Z,1.83
2022-07-25T19:23:51.157Z,1.73
2022-07-25T19:26:53.162Z,1.73
2022-07-25T19:29:55.031Z,1.90
2022-07-25T19:32:57.308Z,1.30
2022-07-25T19:35:59.137Z,1.42
2022-07-25T19:39:01.335Z,1.38
2022-07-25T19:42:07.404Z,1.50
2022-07-25T19:45:09.958Z,1.85
2022-07-25T19:48:11.765Z,1.15
2022-07-25T19:51:13.858Z,1.20
2022-07-25T19:54:15.634Z,1.15
2022-07-25T19:57:17.425Z,1.40
2022-07-25T20:00:19.302Z,1.23
2022-07-25T20:03:23.341Z,1.23
2022-07-25T20:06:25.529Z,1.17
2022-07-25T20:09:27.301Z,1.20
2022-07-25T20:12:29.374Z,1.42
2022-07-25T20:15:31.276Z,1.30
2022-07-25T20:18:33.235Z,1.25
2022-07-25T20:21:39.381Z,1.33
2022-07-25T20:24:41.164Z,1.17
2022-07-25T20:27:43.101Z,1.20
2022-07-25T20:30:44.982Z,1.27
2022-07-25T20:33:46.889Z,1.48
2022-07-25T20:36:48.703Z,1.52
2022-07-25T20:39:50.485Z,1.40
2022-07-25T20:42:52.367Z,1.33
2022-07-25T20:45:54.318Z,1.25
2022-07-25T20:48:56.451Z,1.40
2022-07-25T20:51:58.518Z,1.20
2022-07-25T20:55:01.172Z,1.17
2022-07-25T20:58:08.374Z,1.25
2022-07-25T21:01:11.392Z,1.33
2022-07-25T21:04:13.264Z,1.15
2022-07-25T21:07:16.040Z,1.15
2022-07-25T21:10:17.882Z,1.10
2022-07-25T21:13:19.825Z,0.93
2022-07-25T21:16:21.701Z,1.02
2022-07-25T21:19:23.509Z,1.13
2022-07-25T21:22:25.710Z,1.15
2022-07-25T21:25:27.583Z,1.15
2022-07-25T21:28:29.357Z,1.30
2022-07-25T21:31:31.336Z,1.33
2022-07-25T21:34:33.500Z,1.17
2022-07-25T21:37:35.390Z,1.63
2022-07-25T21:40:37.270Z,1.20
2022-07-25T21:43:40.207Z,1.30
2022-07-25T21:46:42.290Z,1.35
2022-07-25T21:50:03.021Z,1.10
2022-07-25T21:53:07.365Z,1.30
2022-07-25T21:56:09.162Z,1.45
2022-07-25T21:59:11.280Z,1.20
2022-07-25T22:02:13.509Z,1.15
2022-07-25T22:05:18.703Z,1.10
2022-07-25T22:08:20.887Z,1.20
2022-07-25T22:11:39.116Z,1.08
2022-07-25T22:14:45.059Z,1.20
2022-07-25T22:17:49.745Z,1.25
2022-07-25T22:20:52.202Z,1.27
2022-07-25T22:23:54.112Z,1.33
2022-07-25T22:26:55.999Z,1.20
2022-07-25T22:29:57.793Z,1.33
2022-07-25T22:32:59.559Z,1.20
2022-07-25T22:36:01.760Z,1.30
2022-07-25T22:39:04.131Z,1.48
2022-07-25T22:42:06.451Z,1.27
2022-07-25T22:45:09.059Z,1.20
2022-07-25T22:48:10.887Z,1.30
2022-07-25T22:51:12.688Z,1.13
2022-07-25T22:54:14.483Z,1.35
2022-07-25T22:57:16.367Z,1.40
2022-07-25T23:00:18.311Z,1.13
2022-07-25T23:03:20.215Z,1.27
2022-07-25T23:06:22.247Z,0.98
2022-07-25T23:09:24.148Z,1.20
2022-07-25T23:12:31.065Z,1.30
2022-07-25T23:15:50.095Z,1.15
2022-07-25T23:18:52.246Z,1.30
2022-07-25T23:21:54.022Z,1.17
2022-07-25T23:24:56.368Z,0.95
2022-07-25T23:27:58.195Z,1.13
2022-07-25T23:31:00.067Z,0.90
2022-07-25T23:34:06.420Z,0.90
2022-07-25T23:37:08.239Z,1.30
2022-07-25T23:40:10.759Z,1.10
2022-07-25T23:43:12.598Z,1.00
2022-07-25T23:46:16.865Z,0.90
2022-07-25T23:49:20.332Z,1.15
2022-07-25T23:52:22.206Z,1.10
2022-07-25T23:55:24.158Z,1.25
2022-07-25T23:58:25.969Z,1.27
